Time;durP1;ratioP1;P1;durP2;ratioP2;P2;SDS_P1;SDS_P2;PMS_P1;PMS_P2;Temp;Humidity;BMP_temperature;BMP_pressure;BME280_temperature;BME280_humidity;BME280_pressure;Samples;Min_cycle;Max_cycle;Signal;HPM_P1;HPM_P2
2022/03/24 00:01:57;;;;;;;39.00;25.08;;;8.30;99.90;;;;;;5042917;28;20053;-60
2022/03/24 00:04:22;;;;;;;38.08;27.30;;;8.30;99.90;;;;;;5047650;28;20041;-60
2022/03/24 00:06:48;;;;;;;39.72;26.17;;;8.30;99.90;;;;;;5040787;28;20045;-59
2022/03/24 00:09:14;;;;;;;37.75;25.17;;;8.30;99.90;;;;;;5021928;28;20072;-61
2022/03/24 00:11:40;;;;;;;41.47;26.90;;;8.30;99.90;;;;;;5047042;28;20044;-60
2022/03/24 00:14:06;;;;;;;43.00;28.42;;;8.30;99.90;;;;;;5043453;28;20052;-60
2022/03/24 00:16:32;;;;;;;43.30;29.33;;;8.20;99.90;;;;;;5019495;28;20037;-60
2022/03/24 00:18:59;;;;;;;40.05;25.98;;;8.20;99.90;;;;;;5039175;28;20409;-60
2022/03/24 00:21:24;;;;;;;39.38;24.48;;;8.20;99.90;;;;;;5045255;28;20044;-61
2022/03/24 00:23:50;;;;;;;38.15;23.30;;;8.20;99.90;;;;;;5045001;28;20048;-61
2022/03/24 00:26:16;;;;;;;41.72;26.88;;;8.10;99.90;;;;;;5042116;28;20048;-61
2022/03/24 00:28:44;;;;;;;49.55;29.95;;;8.00;99.90;;;;;;5045452;28;20041;-61
2022/03/24 00:31:10;;;;;;;42.90;26.60;;;8.00;99.90;;;;;;5044931;28;20783;-61
2022/03/24 00:33:38;;;;;;;40.63;26.80;;;8.10;99.90;;;;;;5021522;28;20048;-61
2022/03/24 00:36:08;;;;;;;40.28;26.95;;;8.10;99.90;;;;;;5039835;28;20061;-61
2022/03/24 00:38:34;;;;;;;44.70;29.73;;;8.10;99.90;;;;;;5047107;28;20048;-61
2022/03/24 00:41:02;;;;;;;49.10;31.50;;;8.10;99.90;;;;;;5041726;28;20041;-61
2022/03/24 00:43:29;;;;;;;46.45;28.80;;;8.00;99.90;;;;;;5044430;28;20049;-61
2022/03/24 00:45:58;;;;;;;40.42;25.52;;;8.00;99.90;;;;;;5047127;28;20141;-61
2022/03/24 00:48:25;;;;;;;47.65;30.00;;;8.00;99.90;;;;;;5050352;28;20120;-61
2022/03/24 00:50:52;;;;;;;45.50;29.75;;;7.90;99.90;;;;;;5049306;28;20041;-61
2022/03/24 00:53:17;;;;;;;47.53;29.63;;;7.90;99.90;;;;;;5044310;28;20048;-60
2022/03/24 00:55:43;;;;;;;43.13;26.88;;;7.80;99.90;;;;;;5049760;28;20048;-60
2022/03/24 00:58:10;;;;;;;46.60;30.20;;;7.80;99.90;;;;;;5046941;28;20479;-60
2022/03/24 01:00:37;;;;;;;37.88;25.42;;;7.80;99.90;;;;;;5048145;28;20052;-60
2022/03/24 01:03:06;;;;;;;48.55;30.15;;;7.70;99.90;;;;;;5041318;28;20049;-60
2022/03/24 01:05:32;;;;;;;39.58;25.95;;;7.70;99.90;;;;;;5042359;28;20055;-61
2022/03/24 01:07:58;;;;;;;50.10;28.83;;;7.80;99.90;;;;;;5038927;28;20052;-61
2022/03/24 01:10:24;;;;;;;49.92;29.15;;;7.70;99.90;;;;;;5052644;28;20048;-61
2022/03/24 01:12:50;;;;;;;37.92;26.58;;;7.60;99.90;;;;;;5051213;28;20047;-62
2022/03/24 01:15:18;;;;;;;44.38;29.08;;;7.60;99.90;;;;;;5046318;28;20162;-60
2022/03/24 01:17:45;;;;;;;48.75;28.98;;;7.60;99.90;;;;;;5059005;28;20053;-60
2022/03/24 01:20:11;;;;;;;38.45;27.10;;;7.60;99.90;;;;;;5047778;28;20128;-60
2022/03/24 01:22:37;;;;;;;47.53;30.05;;;7.60;99.90;;;;;;5037538;28;20052;-60
2022/03/24 01:25:05;;;;;;;47.25;28.20;;;7.60;99.90;;;;;;5051961;28;20049;-60
2022/03/24 01:27:30;;;;;;;42.42;27.27;;;7.50;99.90;;;;;;5039078;28;20048;-60
2022/03/24 01:29:57;;;;;;;46.60;27.40;;;7.50;99.90;;;;;;5056646;28;20075;-60
2022/03/24 01:32:27;;;;;;;44.40;27.90;;;7.40;99.90;;;;;;5056718;28;20052;-60
2022/03/24 01:34:53;;;;;;;42.60;28.40;;;7.40;99.90;;;;;;5056978;28;20053;-60
2022/03/24 01:37:19;;;;;;;41.78;25.75;;;7.30;99.90;;;;;;5032561;28;20069;-60
2022/03/24 01:39:45;;;;;;;46.85;30.13;;;7.30;99.90;;;;;;5035617;28;20111;-60
2022/03/24 01:42:11;;;;;;;48.60;31.75;;;7.20;99.90;;;;;;5043194;28;20492;-60
2022/03/24 01:44:38;;;;;;;44.97;30.55;;;7.30;99.90;;;;;;5057560;28;20492;-59
2022/03/24 01:47:06;;;;;;;41.53;26.48;;;7.20;99.90;;;;;;5035873;28;20741;-60
2022/03/24 01:49:40;;;;;;;45.75;28.40;;;7.20;99.90;;;;;;5019703;28;20055;-59
2022/03/24 01:52:12;;;;;;;48.90;32.08;;;7.20;99.90;;;;;;5020184;28;20045;-60
2022/03/24 01:54:44;;;;;;;42.75;28.70;;;7.20;99.90;;;;;;5041682;28;20045;-60
2022/03/24 01:57:12;;;;;;;42.63;26.80;;;7.20;99.90;;;;;;5033361;28;20058;-60
2022/03/24 01:59:38;;;;;;;45.67;27.52;;;7.20;99.90;;;;;;5058146;28;20058;-61
2022/03/24 02:02:10;;;;;;;44.03;29.15;;;7.20;99.90;;;;;;5058031;28;20052;-60
2022/03/24 02:04:36;;;;;;;49.08;31.17;;;7.20;99.90;;;;;;5039176;28;20076;-61
2022/03/24 02:07:07;;;;;;;49.80;29.00;;;7.20;99.90;;;;;;5056858;28;20048;-61
2022/03/24 02:09:36;;;;;;;52.75;32.70;;;7.10;99.90;;;;;;5057625;28;20836;-61
2022/03/24 02:12:06;;;;;;;46.08;27.77;;;7.10;99.90;;;;;;5057077;28;20047;-60
2022/03/24 02:14:32;;;;;;;45.08;27.92;;;7.00;99.90;;;;;;5058025;28;20522;-60
2022/03/24 02:16:57;;;;;;;38.20;26.77;;;7.00;99.90;;;;;;5057306;28;20044;-61
2022/03/24 02:19:26;;;;;;;40.75;26.20;;;7.00;99.90;;;;;;5034098;28;20060;-60
2022/03/24 02:21:54;;;;;;;50.55;30.70;;;6.90;99.90;;;;;;5038788;28;20097;-60
2022/03/24 02:24:21;;;;;;;42.45;24.55;;;6.90;99.90;;;;;;5057165;28;20051;-61
2022/03/24 02:26:47;;;;;;;37.63;26.27;;;6.90;99.90;;;;;;5057584;28;20052;-60
2022/03/24 02:29:15;;;;;;;42.40;31.00;;;6.90;99.90;;;;;;5057507;28;20060;-60
2022/03/24 02:31:44;;;;;;;46.03;28.98;;;6.90;99.90;;;;;;5057122;28;20177;-60
2022/03/24 02:37:00;;;;;;;42.78;28.08;;;6.80;99.90;;;;;;5057384;28;20083;-61
2022/03/24 02:39:26;;;;;;;46.53;28.90;;;6.70;99.90;;;;;;5056893;28;20232;-60
2022/03/24 02:41:57;;;;;;;35.58;25.25;;;6.70;99.90;;;;;;5056780;28;20514;-60
2022/03/24 02:44:26;;;;;;;40.42;25.52;;;6.70;99.90;;;;;;5057109;28;20053;-60
2022/03/24 02:46:54;;;;;;;45.63;28.27;;;6.70;99.90;;;;;;5056364;28;20167;-60
2022/03/24 02:49:25;;;;;;;53.78;32.72;;;6.70;99.90;;;;;;5056783;28;20500;-60
2022/03/24 02:51:55;;;;;;;43.10;25.65;;;6.70;99.90;;;;;;5056748;28;20058;-60
2022/03/24 02:54:21;;;;;;;45.30;28.73;;;6.70;99.90;;;;;;5056572;28;20053;-59
2022/03/24 02:56:48;;;;;;;45.85;30.63;;;6.60;99.90;;;;;;5057045;28;20048;-60
2022/03/24 02:59:15;;;;;;;49.65;31.63;;;6.50;99.90;;;;;;5049464;28;20052;-60
2022/03/24 03:01:42;;;;;;;47.72;28.05;;;6.50;99.90;;;;;;5035122;28;20068;-60
2022/03/24 03:04:09;;;;;;;44.83;28.63;;;6.40;99.90;;;;;;5053729;28;20051;-61
2022/03/24 03:06:35;;;;;;;54.03;34.58;;;6.40;99.90;;;;;;5055666;28;20156;-60
2022/03/24 03:09:02;;;;;;;51.58;31.52;;;6.30;99.90;;;;;;5056795;28;20049;-60
2022/03/24 03:11:31;;;;;;;62.10;33.85;;;6.40;99.90;;;;;;5056423;28;20068;-60
2022/03/24 03:13:58;;;;;;;53.58;30.88;;;6.40;99.90;;;;;;5056036;28;20091;-62
2022/03/24 03:16:24;;;;;;;47.10;30.58;;;6.40;99.90;;;;;;5056388;28;20048;-60
2022/03/24 03:18:50;;;;;;;48.45;27.58;;;6.40;99.90;;;;;;5050570;28;20052;-60
2022/03/24 03:21:16;;;;;;;52.85;33.38;;;6.40;99.90;;;;;;5053456;28;20052;-60
2022/03/24 03:23:43;;;;;;;50.60;31.65;;;6.40;99.90;;;;;;5056356;28;20131;-61
2022/03/24 03:26:12;;;;;;;50.47;31.10;;;6.40;99.90;;;;;;5056426;28;20056;-60
2022/03/24 03:28:39;;;;;;;48.65;30.15;;;6.40;99.90;;;;;;5055248;28;20795;-59
2022/03/24 03:31:05;;;;;;;50.97;30.35;;;6.40;99.90;;;;;;5056092;28;20058;-61
2022/03/24 03:33:32;;;;;;;63.85;34.60;;;6.50;99.90;;;;;;5034521;28;20384;-60
2022/03/24 03:35:58;;;;;;;44.25;29.92;;;6.40;99.90;;;;;;5035288;28;20064;-60
2022/03/24 03:38:24;;;;;;;51.58;30.40;;;6.40;99.90;;;;;;5055195;28;20238;-60
2022/03/24 03:40:50;;;;;;;46.28;30.38;;;6.40;99.90;;;;;;5054946;28;20759;-60
2022/03/24 03:43:17;;;;;;;45.10;27.52;;;6.40;99.90;;;;;;5055371;28;20162;-60
2022/03/24 03:45:44;;;;;;;48.10;31.90;;;6.40;99.90;;;;;;5055692;28;20752;-60
2022/03/24 03:48:10;;;;;;;45.92;27.88;;;6.30;99.90;;;;;;5055648;28;20090;-61
2022/03/24 03:50:37;;;;;;;53.40;33.45;;;6.30;99.90;;;;;;5055220;28;20040;-60
2022/03/24 03:53:02;;;;;;;49.88;28.63;;;6.30;99.90;;;;;;5038040;28;20093;-61
2022/03/24 03:55:28;;;;;;;50.75;29.88;;;6.20;99.90;;;;;;5054835;28;20771;-61
2022/03/24 03:57:54;;;;;;;47.17;28.63;;;6.20;99.90;;;;;;5055867;28;20086;-60
2022/03/24 04:03:05;;;;;;;49.95;29.98;;;6.20;99.90;;;;;;5054945;28;20821;-60
2022/03/24 04:05:32;;;;;;;46.30;31.00;;;6.20;99.90;;;;;;5034011;28;20044;-60
2022/03/24 04:07:58;;;;;;;44.92;28.13;;;6.10;99.90;;;;;;5034445;28;20055;-60
2022/03/24 04:10:26;;;;;;;48.10;28.20;;;6.10;99.90;;;;;;5055097;28;20060;-59
2022/03/24 04:12:51;;;;;;;49.60;28.42;;;6.10;99.90;;;;;;5055287;28;20044;-60
2022/03/24 04:15:17;;;;;;;46.40;30.85;;;6.00;99.90;;;;;;5054168;28;20040;-59
2022/03/24 04:17:43;;;;;;;48.00;28.77;;;6.00;99.90;;;;;;5054915;28;20044;-60
2022/03/24 04:20:13;;;;;;;43.90;28.00;;;6.00;99.90;;;;;;5055163;28;20908;-61
2022/03/24 04:22:39;;;;;;;44.42;27.85;;;6.00;99.90;;;;;;5055001;28;20055;-60
2022/03/24 04:25:07;;;;;;;55.97;31.92;;;5.90;99.90;;;;;;5055007;28;20040;-61
2022/03/24 04:27:33;;;;;;;46.35;29.92;;;5.90;99.90;;;;;;5055379;28;20123;-60
2022/03/24 04:29:58;;;;;;;46.55;29.00;;;5.90;99.90;;;;;;5055514;28;20552;-60
2022/03/24 04:32:24;;;;;;;52.42;30.83;;;5.90;99.90;;;;;;5055676;28;20048;-60
2022/03/24 04:34:50;;;;;;;46.08;26.10;;;5.80;99.90;;;;;;5055595;28;20096;-60
2022/03/24 04:37:15;;;;;;;49.35;30.25;;;5.70;99.90;;;;;;5037863;28;20066;-61
2022/03/24 04:39:41;;;;;;;48.03;27.73;;;5.70;99.90;;;;;;5037076;28;20057;-61
2022/03/24 04:42:08;;;;;;;42.50;27.25;;;5.60;99.90;;;;;;5055396;28;20122;-61
2022/03/24 04:44:34;;;;;;;45.65;31.52;;;5.60;99.90;;;;;;5054649;28;20102;-60
2022/03/24 04:46:59;;;;;;;49.70;29.85;;;5.60;99.90;;;;;;5055180;28;20056;-61
2022/03/24 04:49:26;;;;;;;47.28;30.02;;;5.60;99.90;;;;;;5054985;28;20468;-60
2022/03/24 04:51:53;;;;;;;45.00;29.50;;;5.60;99.90;;;;;;5054665;28;20103;-59
2022/03/24 04:54:19;;;;;;;61.90;32.88;;;5.60;99.90;;;;;;5055092;28;20124;-60
2022/03/24 04:56:45;;;;;;;53.00;31.35;;;5.70;99.90;;;;;;5055129;28;20048;-59
2022/03/24 04:59:11;;;;;;;39.60;27.13;;;5.60;99.90;;;;;;5054647;28;20087;-60
2022/03/24 05:01:36;;;;;;;51.88;33.15;;;5.60;99.90;;;;;;5055173;28;20600;-60
2022/03/24 05:04:04;;;;;;;50.45;29.65;;;5.50;99.90;;;;;;5055145;28;20328;-60
2022/03/24 05:06:31;;;;;;;45.58;26.30;;;5.50;99.90;;;;;;5054307;28;20040;-60
2022/03/24 05:08:57;;;;;;;43.42;26.33;;;5.50;99.90;;;;;;5055247;28;20168;-59
2022/03/24 05:11:23;;;;;;;46.05;29.65;;;5.50;99.90;;;;;;5037186;28;20056;-60
2022/03/24 05:13:49;;;;;;;46.95;27.25;;;5.50;99.90;;;;;;5054447;28;20519;-59
2022/03/24 05:16:18;;;;;;;47.45;27.65;;;5.50;99.90;;;;;;5055655;28;20045;-60
2022/03/24 05:18:43;;;;;;;42.78;28.08;;;5.40;99.90;;;;;;5054596;28;20178;-60
2022/03/24 05:21:12;;;;;;;43.25;27.52;;;5.40;99.90;;;;;;5053904;28;20145;-61
2022/03/24 05:23:38;;;;;;;41.65;26.45;;;5.30;99.90;;;;;;5054603;28;20105;-60
2022/03/24 05:26:03;;;;;;;43.42;28.67;;;5.30;99.90;;;;;;5055399;28;20062;-61
2022/03/24 05:28:29;;;;;;;47.65;30.55;;;5.30;99.90;;;;;;5057302;28;20047;-59
2022/03/24 05:30:54;;;;;;;56.13;33.30;;;5.20;99.90;;;;;;5058330;28;20056;-60
2022/03/24 05:33:20;;;;;;;51.28;31.52;;;5.20;99.90;;;;;;5058414;28;20055;-60
2022/03/24 05:35:46;;;;;;;46.05;29.65;;;5.20;99.90;;;;;;5057013;28;20155;-60
2022/03/24 05:38:11;;;;;;;43.35;29.17;;;5.20;99.90;;;;;;5058670;28;20399;-61
2022/03/24 05:40:37;;;;;;;57.25;34.60;;;5.20;99.90;;;;;;5057780;28;20106;-60
2022/03/24 05:43:03;;;;;;;51.80;33.42;;;5.20;99.90;;;;;;5057376;28;20072;-60
2022/03/24 05:45:28;;;;;;;54.63;32.30;;;5.20;99.90;;;;;;5037995;28;20044;-60
2022/03/24 05:47:54;;;;;;;43.63;27.90;;;5.20;99.90;;;;;;5054243;28;20052;-60
2022/03/24 05:50:20;;;;;;;51.60;31.45;;;5.20;99.90;;;;;;5055008;28;20052;-59
2022/03/24 05:52:49;;;;;;;54.70;32.60;;;5.20;99.90;;;;;;5055147;28;20041;-60
2022/03/24 05:55:16;;;;;;;51.42;32.78;;;5.20;99.90;;;;;;5054919;28;20055;-61
2022/03/24 05:57:42;;;;;;;51.67;31.52;;;5.30;99.90;;;;;;5054885;28;20091;-60
2022/03/24 06:00:08;;;;;;;48.33;28.17;;;5.30;99.90;;;;;;5054971;28;20037;-61
2022/03/24 06:02:34;;;;;;;46.20;29.08;;;5.30;99.90;;;;;;5054731;28;20048;-60
2022/03/24 06:05:00;;;;;;;45.92;26.15;;;5.30;99.90;;;;;;5054987;28;20841;-60
2022/03/24 06:07:29;;;;;;;50.90;30.00;;;5.40;99.90;;;;;;5033649;28;20126;-59
2022/03/24 06:09:55;;;;;;;46.33;32.25;;;5.40;99.90;;;;;;5038081;28;20057;-60
2022/03/24 06:12:22;;;;;;;51.42;34.08;;;5.40;99.90;;;;;;5044706;28;20044;-60
2022/03/24 06:14:48;;;;;;;48.92;29.45;;;5.40;99.90;;;;;;5045316;28;20053;-59
2022/03/24 06:17:13;;;;;;;56.25;34.42;;;5.40;99.90;;;;;;5020496;28;20045;-61
2022/03/24 06:19:39;;;;;;;40.80;25.42;;;5.50;99.90;;;;;;5042212;28;20152;-59
2022/03/24 06:22:05;;;;;;;50.70;30.67;;;5.50;99.90;;;;;;5034335;28;20835;-60
2022/03/24 06:24:31;;;;;;;45.92;26.17;;;5.50;99.90;;;;;;5042691;28;20493;-61
2022/03/24 06:26:57;;;;;;;44.70;27.25;;;5.50;99.90;;;;;;5026118;28;20080;-60
2022/03/24 06:29:23;;;;;;;49.58;31.27;;;5.60;99.90;;;;;;5044900;28;20049;-59
2022/03/24 06:31:49;;;;;;;54.25;33.20;;;5.60;99.90;;;;;;5035851;28;20544;-59
2022/03/24 06:34:15;;;;;;;42.65;28.70;;;5.70;99.90;;;;;;5047445;28;20095;-61
2022/03/24 06:36:41;;;;;;;53.10;33.33;;;5.80;99.90;;;;;;5038013;28;20048;-59
2022/03/24 06:39:07;;;;;;;52.58;32.45;;;5.90;99.90;;;;;;5019454;28;20056;-61
2022/03/24 06:41:33;;;;;;;53.47;32.35;;;5.90;99.90;;;;;;5038552;28;20053;-60
2022/03/24 06:44:00;;;;;;;53.92;32.60;;;6.00;99.90;;;;;;5038832;28;20067;-60
2022/03/24 06:46:27;;;;;;;52.83;34.05;;;6.10;99.90;;;;;;5041286;28;20053;-60
2022/03/24 06:48:54;;;;;;;47.10;30.02;;;6.20;99.90;;;;;;5041859;28;20093;-60
2022/03/24 06:51:20;;;;;;;54.53;35.47;;;6.30;99.90;;;;;;5043912;28;20065;-60
2022/03/24 06:53:46;;;;;;;53.72;33.85;;;6.40;99.90;;;;;;5043095;28;20063;-60
2022/03/24 06:56:12;;;;;;;65.00;37.08;;;6.50;99.90;;;;;;5034969;28;20036;-61
2022/03/24 06:58:37;;;;;;;61.20;35.67;;;6.60;99.90;;;;;;5044500;28;20110;-60
2022/03/24 07:01:03;;;;;;;55.55;34.47;;;6.80;99.90;;;;;;5034441;28;20071;-61
2022/03/24 07:03:29;;;;;;;68.03;40.55;;;6.90;99.90;;;;;;5014509;28;20150;-60
2022/03/24 07:05:55;;;;;;;69.97;43.53;;;7.00;99.90;;;;;;5045871;28;20056;-60
2022/03/24 07:08:25;;;;;;;70.10;43.70;;;7.10;99.90;;;;;;5040229;28;20156;-60
2022/03/24 07:10:50;;;;;;;68.82;43.00;;;7.10;99.90;;;;;;5045461;28;20052;-60
2022/03/24 07:13:19;;;;;;;61.20;37.05;;;7.30;99.90;;;;;;5042659;28;20133;-60
2022/03/24 07:15:45;;;;;;;69.13;40.83;;;7.30;99.90;;;;;;5042957;28;20079;-60
2022/03/24 07:18:10;;;;;;;67.55;40.45;;;7.50;99.90;;;;;;5039298;28;20471;-60
2022/03/24 07:20:36;;;;;;;65.90;39.85;;;7.60;99.90;;;;;;5039413;28;20072;-60
2022/03/24 07:23:06;;;;;;;73.82;45.70;;;7.70;99.90;;;;;;5048040;28;20040;-60
2022/03/24 07:25:33;;;;;;;69.13;39.17;;;7.80;99.90;;;;;;5045577;28;20041;-60
2022/03/24 07:28:00;;;;;;;72.35;44.67;;;8.00;99.90;;;;;;5040252;28;20057;-60
2022/03/24 07:30:26;;;;;;;65.63;41.15;;;8.10;99.90;;;;;;5040064;28;20682;-60
2022/03/24 07:32:54;;;;;;;65.40;43.15;;;8.20;99.90;;;;;;5024432;28;20846;-59
2022/03/24 07:35:21;;;;;;;66.32;39.45;;;8.30;99.90;;;;;;5042130;28;20045;-60
2022/03/24 07:37:47;;;;;;;63.58;41.70;;;8.40;99.90;;;;;;4998502;28;20156;-60
2022/03/24 07:40:18;;;;;;;68.50;40.30;;;8.50;99.90;;;;;;5016401;28;20053;-61
2022/03/24 07:42:45;;;;;;;67.00;43.83;;;8.50;99.90;;;;;;5018289;28;20050;-61
2022/03/24 07:45:12;;;;;;;61.15;39.70;;;8.60;99.90;;;;;;5013767;28;20217;-61
2022/03/24 07:48:11;;;;;;;58.88;42.67;;;8.80;99.90;;;;;;5031834;28;20148;-60
2022/03/24 07:50:39;;;;;;;55.85;38.38;;;9.80;99.90;;;;;;5033558;28;20110;-60
2022/03/24 07:53:13;;;;;;;58.38;39.38;;;11.20;99.90;;;;;;5033624;28;20041;-61
2022/03/24 07:55:41;;;;;;;59.30;36.80;;;12.30;99.90;;;;;;5027315;28;20124;-61
2022/03/24 07:58:08;;;;;;;53.55;36.78;;;13.20;99.90;;;;;;4997625;28;20072;-61
2022/03/24 08:00:34;;;;;;;58.45;37.95;;;14.00;99.90;;;;;;5018769;28;20048;-60
2022/03/24 08:03:00;;;;;;;50.15;36.92;;;14.50;99.90;;;;;;5017980;28;20033;-61
2022/03/24 08:05:26;;;;;;;52.00;36.47;;;14.90;99.90;;;;;;5003784;28;20136;-61
2022/03/24 08:07:54;;;;;;;53.40;35.22;;;15.40;99.90;;;;;;5005559;28;20047;-61
2022/03/24 08:10:20;;;;;;;51.80;34.67;;;16.30;99.90;;;;;;5020636;28;20041;-61
2022/03/24 08:12:45;;;;;;;62.60;35.03;;;17.10;99.90;;;;;;5021562;28;20040;-61
2022/03/24 08:15:12;;;;;;;52.65;33.15;;;17.30;98.80;;;;;;5017432;28;20041;-60
2022/03/24 08:17:38;;;;;;;50.35;32.90;;;17.90;98.00;;;;;;5026979;28;20072;-60
2022/03/24 08:20:06;;;;;;;45.50;32.92;;;18.20;96.50;;;;;;5020236;28;20128;-60
2022/03/24 08:22:31;;;;;;;53.22;35.45;;;18.40;95.70;;;;;;5020001;28;20045;-60
2022/03/24 08:24:57;;;;;;;47.50;32.58;;;18.60;95.10;;;;;;5024580;28;20060;-61
2022/03/24 08:27:22;;;;;;;48.97;33.17;;;18.70;94.40;;;;;;5025755;28;20049;-60
2022/03/24 08:29:48;;;;;;;47.13;31.80;;;19.20;94.10;;;;;;5020651;28;20585;-60
2022/03/24 08:32:14;;;;;;;42.38;32.30;;;19.80;93.50;;;;;;5019841;28;20347;-60
2022/03/24 08:34:40;;;;;;;43.20;31.90;;;20.40;92.50;;;;;;5005996;28;20049;-60
2022/03/24 08:37:06;;;;;;;47.25;33.97;;;20.50;91.20;;;;;;5033845;28;20095;-60
2022/03/24 08:39:32;;;;;;;42.00;29.80;;;21.10;90.60;;;;;;5042409;28;20045;-60
2022/03/24 08:41:58;;;;;;;40.75;29.70;;;21.20;87.80;;;;;;5038672;28;20048;-60
2022/03/24 08:44:24;;;;;;;36.88;26.20;;;21.30;84.40;;;;;;5045839;28;20127;-60
2022/03/24 08:46:49;;;;;;;36.78;27.13;;;21.50;79.70;;;;;;5020237;28;20068;-60
2022/03/24 08:49:15;;;;;;;38.95;31.08;;;21.60;77.50;;;;;;5031800;28;20051;-60
2022/03/24 08:51:41;;;;;;;40.58;28.80;;;21.40;74.60;;;;;;5041901;28;20036;-61
2022/03/24 08:54:07;;;;;;;44.80;31.33;;;21.60;74.50;;;;;;5039198;28;20585;-61
2022/03/24 08:56:33;;;;;;;38.92;28.65;;;21.60;73.50;;;;;;5030356;28;20056;-61
2022/03/24 08:58:59;;;;;;;41.25;30.25;;;21.60;72.60;;;;;;5031699;28;20102;-60
2022/03/24 09:01:26;;;;;;;34.85;27.42;;;21.90;72.40;;;;;;5033471;28;20052;-61
2022/03/24 09:03:52;;;;;;;41.55;29.02;;;22.00;70.70;;;;;;5018336;28;20049;-60
2022/03/24 09:06:18;;;;;;;42.45;29.40;;;21.80;68.70;;;;;;5051718;28;20048;-60
2022/03/24 09:08:44;;;;;;;42.30;29.05;;;21.20;64.50;;;;;;5038282;28;20048;-60
2022/03/24 09:11:09;;;;;;;40.53;28.85;;;20.10;63.00;;;;;;5056764;28;20442;-60
2022/03/24 09:13:38;;;;;;;43.08;27.35;;;19.70;66.10;;;;;;5038190;28;20764;-60
2022/03/24 09:16:06;;;;;;;40.10;28.33;;;19.70;62.00;;;;;;5038368;28;20091;-61
2022/03/24 09:18:31;;;;;;;39.03;28.85;;;19.10;65.70;;;;;;5056285;28;20036;-60
2022/03/24 09:20:57;;;;;;;39.80;27.75;;;19.50;66.30;;;;;;5056035;28;20049;-60
2022/03/24 09:23:24;;;;;;;37.20;29.05;;;19.30;67.30;;;;;;5056970;28;20086;-60
2022/03/24 09:25:50;;;;;;;41.50;28.33;;;19.90;67.10;;;;;;5037850;28;20040;-60
2022/03/24 09:28:16;;;;;;;41.20;29.55;;;20.30;64.60;;;;;;5056006;28;20490;-60
2022/03/24 09:30:42;;;;;;;38.13;29.27;;;20.80;66.70;;;;;;5055864;28;20063;-61
2022/03/24 09:33:09;;;;;;;43.63;30.48;;;21.00;65.70;;;;;;5037486;28;20052;-60
2022/03/24 09:35:35;;;;;;;41.92;28.92;;;21.10;64.90;;;;;;5038062;28;20131;-60
2022/03/24 09:38:02;;;;;;;48.60;32.80;;;20.80;66.30;;;;;;5055863;28;20044;-61
2022/03/24 09:40:27;;;;;;;40.60;29.60;;;20.00;66.10;;;;;;5037180;28;20052;-61
2022/03/24 09:42:55;;;;;;;44.22;31.60;;;19.10;67.80;;;;;;5056398;28;20056;-61
2022/03/24 09:45:21;;;;;;;43.60;28.73;;;19.20;69.50;;;;;;5055705;28;20702;-60
2022/03/24 09:47:46;;;;;;;41.53;29.17;;;19.60;69.40;;;;;;5017904;28;20045;-60
2022/03/24 09:50:14;;;;;;;42.55;28.95;;;20.00;69.10;;;;;;4705790;28;9999820;-60
2022/03/24 09:52:40;;;;;;;42.08;30.17;;;20.00;64.70;;;;;;5038260;28;20170;-60
2022/03/24 10:03:09;;;;;;;42.03;28.77;;;18.90;59.60;;;;;;5131847;27;20417;-61
2022/03/24 10:05:35;;;;;;;47.72;30.38;;;19.10;63.30;;;;;;5131588;27;20227;-61
2022/03/24 10:08:08;;;;;;;38.22;29.33;;;19.50;65.40;;;;;;5131526;27;20170;-62
2022/03/24 10:10:34;;;;;;;39.92;28.85;;;19.90;66.00;;;;;;5120813;27;20107;-62
2022/03/24 10:13:01;;;;;;;41.45;28.75;;;19.70;65.30;;;;;;5122728;27;20047;-62
2022/03/24 10:15:28;;;;;;;36.78;26.08;;;19.90;63.70;;;;;;5127577;27;20053;-62
2022/03/24 10:17:56;;;;;;;42.83;29.00;;;20.40;63.70;;;;;;5101362;28;20073;-62
2022/03/24 10:20:23;;;;;;;46.10;27.25;;;19.70;61.20;;;;;;5110233;28;20051;-62
2022/03/24 10:22:53;;;;;;;42.22;26.77;;;19.90;62.60;;;;;;5110473;28;20047;-62
2022/03/24 10:25:21;;;;;;;37.92;26.88;;;20.50;61.10;;;;;;5111613;28;20039;-62
2022/03/24 10:28:10;;;;;;;40.97;27.10;;;20.80;60.10;;;;;;5115194;27;20055;-62
2022/03/24 10:30:59;;;;;;;43.47;30.10;;;21.50;57.40;;;;;;5124236;27;20095;-62
2022/03/24 10:33:32;;;;;;;46.75;28.42;;;21.00;56.30;;;;;;5112369;27;20047;-61
2022/03/24 10:36:12;;;;;;;38.58;28.05;;;20.80;59.30;;;;;;5092217;28;20058;-61
2022/03/24 10:38:40;;;;;;;44.17;29.10;;;21.10;57.60;;;;;;5109881;28;20092;-61
2022/03/24 10:41:16;;;;;;;38.58;28.33;;;20.80;59.20;;;;;;5110191;28;20044;-61
2022/03/24 10:43:43;;;;;;;34.70;27.67;;;20.80;57.90;;;;;;5091279;28;20055;-61
2022/03/24 10:46:16;;;;;;;40.75;26.40;;;21.10;59.60;;;;;;5116715;27;20041;-62
2022/03/24 10:48:43;;;;;;;42.95;29.40;;;21.50;58.60;;;;;;5131532;27;20047;-61
2022/03/24 10:51:09;;;;;;;46.20;29.80;;;21.80;58.50;;;;;;5123579;27;20863;-61
2022/03/24 10:53:40;;;;;;;44.75;30.35;;;20.60;58.20;;;;;;5119162;27;20050;-60
2022/03/24 10:56:27;;;;;;;41.60;30.17;;;19.60;59.90;;;;;;5106447;27;20497;-62
2022/03/24 10:59:03;;;;;;;43.45;29.83;;;19.10;60.80;;;;;;5108815;28;20047;-60
2022/03/24 11:01:31;;;;;;;43.00;30.40;;;18.40;62.00;;;;;;5090204;28;20112;-60
2022/03/24 11:03:56;;;;;;;42.50;30.10;;;18.20;64.70;;;;;;5107573;28;20105;-62
2022/03/24 11:06:23;;;;;;;42.42;29.92;;;17.70;65.60;;;;;;5115636;27;20039;-62
2022/03/24 11:08:56;;;;;;;39.88;28.23;;;17.30;66.40;;;;;;5122526;27;20040;-63
2022/03/24 11:11:29;;;;;;;46.13;29.90;;;17.20;67.30;;;;;;5107157;27;20103;-61
2022/03/24 11:14:04;;;;;;;40.55;28.38;;;17.20;67.90;;;;;;5115456;27;20047;-61
2022/03/24 11:16:33;;;;;;;39.97;29.65;;;17.20;66.60;;;;;;5114206;27;20057;-61
2022/03/24 11:19:01;;;;;;;38.80;27.30;;;17.00;66.90;;;;;;5114047;27;20043;-60
2022/03/24 11:21:33;;;;;;;41.25;30.90;;;17.00;66.30;;;;;;5114249;27;20074;-62
2022/03/24 11:24:00;;;;;;;50.80;30.80;;;17.00;64.40;;;;;;5085282;27;20058;-61
2022/03/24 11:26:26;;;;;;;52.47;38.28;;;17.00;65.90;;;;;;5103753;27;20083;-61
2022/03/24 11:28:57;;;;;;;50.42;33.85;;;16.90;70.20;;;;;;5106555;27;20106;-60
2022/03/24 11:31:23;;;;;;;63.33;43.63;;;16.80;68.10;;;;;;5108363;27;20487;-60
2022/03/24 11:33:56;;;;;;;57.40;37.03;;;16.60;70.90;;;;;;5103430;27;20043;-61
2022/03/24 11:36:23;;;;;;;60.80;40.25;;;16.60;71.30;;;;;;5105050;27;20070;-60
2022/03/24 11:38:52;;;;;;;54.72;38.65;;;16.60;71.30;;;;;;5084379;27;20054;-60
2022/03/24 11:41:23;;;;;;;55.40;35.47;;;16.60;70.40;;;;;;5107405;27;20047;-61
2022/03/24 11:43:53;;;;;;;43.78;31.77;;;16.60;69.70;;;;;;5099321;27;20111;-60
2022/03/24 11:46:50;;;;;;;41.70;28.58;;;16.80;70.40;;;;;;5100409;27;20039;-60
2022/03/24 11:49:24;;;;;;;51.67;34.30;;;16.70;65.40;;;;;;5098749;27;20052;-60
2022/03/24 11:51:58;;;;;;;46.08;32.45;;;16.70;67.40;;;;;;5104106;27;20043;-60
2022/03/24 11:54:36;;;;;;;39.17;27.70;;;16.90;68.00;;;;;;5106210;27;20119;-62
2022/03/24 11:57:31;;;;;;;44.92;28.52;;;16.80;64.60;;;;;;5098686;27;20039;-61
2022/03/24 12:00:12;;;;;;;33.83;22.60;;;16.80;64.30;;;;;;5080239;27;20044;-60
2022/03/24 12:02:38;;;;;;;37.35;24.33;;;16.60;60.50;;;;;;5102658;27;20059;-60
2022/03/24 12:05:07;;;;;;;46.40;25.85;;;16.70;62.40;;;;;;5104235;27;20094;-61
2022/03/24 12:07:33;;;;;;;38.30;24.33;;;16.70;62.10;;;;;;5098291;27;20050;-61
2022/03/24 12:10:08;;;;;;;47.05;28.63;;;16.80;64.30;;;;;;5094855;27;20043;-62
2022/03/24 12:12:35;;;;;;;41.00;25.88;;;16.80;65.70;;;;;;5094137;27;20775;-61
2022/03/24 12:15:15;;;;;;;46.80;28.27;;;16.70;64.90;;;;;;5099355;27;20178;-61
2022/03/24 12:18:06;;;;;;;42.05;27.33;;;16.90;67.20;;;;;;5098681;27;20070;-60
2022/03/24 12:20:43;;;;;;;39.83;27.38;;;17.10;64.70;;;;;;5102476;27;20078;-60
2022/03/24 12:23:09;;;;;;;34.83;24.10;;;17.10;63.10;;;;;;5078878;27;20047;-61
2022/03/24 12:25:35;;;;;;;34.95;24.10;;;17.10;63.80;;;;;;5096118;27;20039;-61
2022/03/24 12:28:13;;;;;;;35.35;22.35;;;17.10;61.90;;;;;;5101723;27;20112;-61
2022/03/24 12:30:59;;;;;;;31.08;22.13;;;17.00;62.60;;;;;;5100866;27;20130;-61
2022/03/24 12:33:34;;;;;;;32.33;22.08;;;16.90;60.20;;;;;;5106236;27;20046;-61
2022/03/24 12:36:01;;;;;;;36.40;24.35;;;17.10;60.70;;;;;;5098278;27;20804;-61
2022/03/24 12:38:34;;;;;;;34.88;20.35;;;17.10;61.70;;;;;;5096227;27;20076;-60
2022/03/24 12:41:05;;;;;;;32.75;20.00;;;17.10;61.30;;;;;;5075689;27;20108;-61
2022/03/24 12:43:43;;;;;;;35.58;23.75;;;17.00;59.80;;;;;;5099897;27;20397;-60
2022/03/24 12:46:32;;;;;;;31.65;19.17;;;17.10;58.70;;;;;;5100571;27;20043;-60
2022/03/24 12:49:11;;;;;;;29.90;18.25;;;17.20;57.90;;;;;;5106508;27;20161;-60
2022/03/24 12:51:52;;;;;;;36.15;20.13;;;17.20;58.80;;;;;;5104594;27;20035;-60